sensor_id;sensor_type;location;lat;lon;timestamp;pressure;altitude;pressure_sealevel;temperature;humidity
36234;BME280;43467;50.890;5.982;2024-01-06T00:01:48;98861.94;;;8.64;90.40
36234;BME280;43467;50.890;5.982;2024-01-06T00:04:13;98857.84;;;8.58;90.34
36234;BME280;43467;50.890;5.982;2024-01-06T00:06:39;98871.50;;;8.65;90.71
36234;BME280;43467;50.890;5.982;2024-01-06T00:09:04;98868.34;;;8.74;90.58
36234;BME280;43467;50.890;5.982;2024-01-06T00:11:30;98873.16;;;8.67;90.88
36234;BME280;43467;50.890;5.982;2024-01-06T00:13:55;98876.84;;;8.79;90.47
36234;BME280;43467;50.890;5.982;2024-01-06T00:16:20;98877.75;;;8.78;89.80
36234;BME280;43467;50.890;5.982;2024-01-06T00:18:47;98884.09;;;8.90;89.88
36234;BME280;43467;50.890;5.982;2024-01-06T00:21:12;98884.47;;;8.83;89.71
36234;BME280;43467;50.890;5.982;2024-01-06T00:23:40;98893.06;;;8.87;89.74
36234;BME280;43467;50.890;5.982;2024-01-06T00:26:05;98884.22;;;8.88;90.00
36234;BME280;43467;50.890;5.982;2024-01-06T00:28:31;98888.06;;;8.97;89.75
36234;BME280;43467;50.890;5.982;2024-01-06T00:30:56;98886.16;;;8.84;90.03
36234;BME280;43467;50.890;5.982;2024-01-06T00:33:21;98891.94;;;8.91;89.85
36234;BME280;43467;50.890;5.982;2024-01-06T00:35:47;98887.78;;;9.01;89.54
36234;BME280;43467;50.890;5.982;2024-01-06T00:38:12;98886.47;;;8.94;89.81
36234;BME280;43467;50.890;5.982;2024-01-06T00:40:38;98896.16;;;8.94;89.52
36234;BME280;43467;50.890;5.982;2024-01-06T00:43:04;98883.28;;;9.03;89.77
36234;BME280;43467;50.890;5.982;2024-01-06T00:45:29;98884.78;;;9.07;88.94
36234;BME280;43467;50.890;5.982;2024-01-06T00:47:56;98887.97;;;8.98;89.37
36234;BME280;43467;50.890;5.982;2024-01-06T00:50:21;98892.59;;;8.95;89.69
36234;BME280;43467;50.890;5.982;2024-01-06T00:52:46;98895.16;;;8.96;89.85
36234;BME280;43467;50.890;5.982;2024-01-06T00:55:12;98895.88;;;8.98;89.67
36234;BME280;43467;50.890;5.982;2024-01-06T00:57:37;98901.63;;;9.05;90.20
36234;BME280;43467;50.890;5.982;2024-01-06T01:00:06;98899.00;;;8.91;89.91
36234;BME280;43467;50.890;5.982;2024-01-06T01:02:31;98893.34;;;8.97;90.18
36234;BME280;43467;50.890;5.982;2024-01-06T01:04:58;98895.53;;;9.04;90.04
36234;BME280;43467;50.890;5.982;2024-01-06T01:07:24;98894.41;;;9.08;89.46
36234;BME280;43467;50.890;5.982;2024-01-06T01:09:49;98906.72;;;8.94;89.64
36234;BME280;43467;50.890;5.982;2024-01-06T01:12:14;98905.47;;;8.85;90.60
36234;BME280;43467;50.890;5.982;2024-01-06T01:14:40;98907.66;;;8.78;90.85
36234;BME280;43467;50.890;5.982;2024-01-06T01:17:05;98908.78;;;8.74;91.62
36234;BME280;43467;50.890;5.982;2024-01-06T01:19:31;98912.47;;;8.86;91.31
36234;BME280;43467;50.890;5.982;2024-01-06T01:21:56;98917.94;;;8.83;90.92
36234;BME280;43467;50.890;5.982;2024-01-06T01:24:22;98917.47;;;8.91;90.55
36234;BME280;43467;50.890;5.982;2024-01-06T01:26:48;98925.78;;;8.99;90.32
36234;BME280;43467;50.890;5.982;2024-01-06T01:29:15;98927.28;;;9.03;90.07
36234;BME280;43467;50.890;5.982;2024-01-06T01:31:41;98929.63;;;8.93;89.83
36234;BME280;43467;50.890;5.982;2024-01-06T01:34:06;98936.25;;;9.00;89.94
36234;BME280;43467;50.890;5.982;2024-01-06T01:36:31;98938.59;;;9.05;89.45
36234;BME280;43467;50.890;5.982;2024-01-06T01:38:57;98933.22;;;8.92;89.87
36234;BME280;43467;50.890;5.982;2024-01-06T01:41:24;98935.50;;;8.98;89.55
36234;BME280;43467;50.890;5.982;2024-01-06T01:43:49;98931.53;;;9.05;88.67
36234;BME280;43467;50.890;5.982;2024-01-06T01:46:25;98937.50;;;9.09;88.73
36234;BME280;43467;50.890;5.982;2024-01-06T01:48:51;98944.97;;;9.16;88.27
36234;BME280;43467;50.890;5.982;2024-01-06T01:51:18;98940.69;;;9.14;88.47
36234;BME280;43467;50.890;5.982;2024-01-06T01:53:44;98946.72;;;9.02;88.92
36234;BME280;43467;50.890;5.982;2024-01-06T01:56:09;98946.03;;;8.84;89.40
36234;BME280;43467;50.890;5.982;2024-01-06T01:58:36;98951.72;;;8.92;89.13
36234;BME280;43467;50.890;5.982;2024-01-06T02:01:02;98952.72;;;8.90;88.85
36234;BME280;43467;50.890;5.982;2024-01-06T02:03:30;98951.38;;;8.82;89.05
36234;BME280;43467;50.890;5.982;2024-01-06T02:05:55;98948.47;;;8.87;88.88
36234;BME280;43467;50.890;5.982;2024-01-06T02:08:21;98958.78;;;8.92;88.85
36234;BME280;43467;50.890;5.982;2024-01-06T02:10:47;98954.25;;;8.94;88.75
36234;BME280;43467;50.890;5.982;2024-01-06T02:13:13;98956.72;;;9.11;88.38
36234;BME280;43467;50.890;5.982;2024-01-06T02:15:38;98956.53;;;9.14;87.98
36234;BME280;43467;50.890;5.982;2024-01-06T02:18:04;98958.78;;;8.92;88.56
36234;BME280;43467;50.890;5.982;2024-01-06T02:20:30;98963.94;;;8.93;89.09
36234;BME280;43467;50.890;5.982;2024-01-06T02:22:56;98966.72;;;9.06;88.51
36234;BME280;43467;50.890;5.982;2024-01-06T02:25:23;98973.66;;;8.93;88.70
36234;BME280;43467;50.890;5.982;2024-01-06T02:27:49;98962.34;;;8.91;89.03
36234;BME280;43467;50.890;5.982;2024-01-06T02:30:14;98967.09;;;9.00;88.66
36234;BME280;43467;50.890;5.982;2024-01-06T02:32:40;98969.06;;;8.96;88.62
36234;BME280;43467;50.890;5.982;2024-01-06T02:35:05;98971.13;;;8.91;88.77
36234;BME280;43467;50.890;5.982;2024-01-06T02:37:31;98979.13;;;8.90;89.06
36234;BME280;43467;50.890;5.982;2024-01-06T02:39:56;98976.97;;;8.96;88.55
36234;BME280;43467;50.890;5.982;2024-01-06T02:42:22;98976.94;;;8.82;89.02
36234;BME280;43467;50.890;5.982;2024-01-06T02:44:49;98987.84;;;8.76;89.67
36234;BME280;43467;50.890;5.982;2024-01-06T02:47:14;98993.44;;;8.85;89.65
36234;BME280;43467;50.890;5.982;2024-01-06T02:49:40;98998.81;;;8.84;89.65
36234;BME280;43467;50.890;5.982;2024-01-06T02:52:06;98992.31;;;8.90;89.83
36234;BME280;43467;50.890;5.982;2024-01-06T02:54:31;98997.56;;;8.75;90.07
36234;BME280;43467;50.890;5.982;2024-01-06T02:56:56;99001.72;;;8.79;90.10
36234;BME280;43467;50.890;5.982;2024-01-06T02:59:22;99003.38;;;8.96;89.24
36234;BME280;43467;50.890;5.982;2024-01-06T03:01:47;99007.69;;;8.97;89.03
36234;BME280;43467;50.890;5.982;2024-01-06T03:04:12;99006.19;;;8.93;89.09
36234;BME280;43467;50.890;5.982;2024-01-06T03:06:38;99008.25;;;8.88;89.58
36234;BME280;43467;50.890;5.982;2024-01-06T03:09:04;99008.75;;;8.95;89.49
36234;BME280;43467;50.890;5.982;2024-01-06T03:11:29;99012.84;;;8.84;89.84
36234;BME280;43467;50.890;5.982;2024-01-06T03:13:54;99017.41;;;8.97;89.90
36234;BME280;43467;50.890;5.982;2024-01-06T03:16:20;99031.56;;;8.96;89.33
36234;BME280;43467;50.890;5.982;2024-01-06T03:18:45;99032.75;;;8.90;88.94
36234;BME280;43467;50.890;5.982;2024-01-06T03:21:21;99035.59;;;8.87;87.35
36234;BME280;43467;50.890;5.982;2024-01-06T03:23:48;99042.16;;;8.80;87.17
36234;BME280;43467;50.890;5.982;2024-01-06T03:26:13;99043.88;;;8.65;87.33
36234;BME280;43467;50.890;5.982;2024-01-06T03:28:39;99040.91;;;8.71;87.13
36234;BME280;43467;50.890;5.982;2024-01-06T03:31:04;99046.25;;;8.70;87.21
36234;BME280;43467;50.890;5.982;2024-01-06T03:33:30;99042.25;;;8.63;87.31
36234;BME280;43467;50.890;5.982;2024-01-06T03:35:56;99049.81;;;8.69;87.18
36234;BME280;43467;50.890;5.982;2024-01-06T03:38:21;99047.19;;;8.69;87.23
36234;BME280;43467;50.890;5.982;2024-01-06T03:40:47;99048.31;;;8.49;87.97
36234;BME280;43467;50.890;5.982;2024-01-06T03:43:12;99048.72;;;8.26;89.01
36234;BME280;43467;50.890;5.982;2024-01-06T03:45:37;99054.91;;;8.25;88.75
36234;BME280;43467;50.890;5.982;2024-01-06T03:48:03;99062.19;;;8.04;89.68
36234;BME280;43467;50.890;5.982;2024-01-06T03:50:28;99061.72;;;8.13;88.60
36234;BME280;43467;50.890;5.982;2024-01-06T03:52:54;99062.31;;;8.18;88.81
36234;BME280;43467;50.890;5.982;2024-01-06T03:55:19;99068.09;;;8.25;88.31
36234;BME280;43467;50.890;5.982;2024-01-06T03:57:44;99070.72;;;8.25;87.88
36234;BME280;43467;50.890;5.982;2024-01-06T04:00:10;99081.63;;;8.19;87.78
36234;BME280;43467;50.890;5.982;2024-01-06T04:02:36;99070.81;;;8.23;87.55
36234;BME280;43467;50.890;5.982;2024-01-06T04:05:01;99071.75;;;8.22;86.70
36234;BME280;43467;50.890;5.982;2024-01-06T04:07:26;99077.56;;;8.29;86.56
36234;BME280;43467;50.890;5.982;2024-01-06T04:09:52;99087.19;;;8.30;85.38
36234;BME280;43467;50.890;5.982;2024-01-06T04:12:17;99082.84;;;8.29;85.68
36234;BME280;43467;50.890;5.982;2024-01-06T04:14:43;99083.53;;;8.32;85.73
36234;BME280;43467;50.890;5.982;2024-01-06T04:17:08;99089.72;;;8.31;84.46
36234;BME280;43467;50.890;5.982;2024-01-06T04:19:34;99084.19;;;8.36;84.87
36234;BME280;43467;50.890;5.982;2024-01-06T04:21:59;99089.47;;;8.36;84.45
36234;BME280;43467;50.890;5.982;2024-01-06T04:24:25;99091.25;;;8.35;84.67
36234;BME280;43467;50.890;5.982;2024-01-06T04:26:50;99092.78;;;8.39;83.85
36234;BME280;43467;50.890;5.982;2024-01-06T04:29:16;99094.00;;;8.34;84.09
36234;BME280;43467;50.890;5.982;2024-01-06T04:31:41;99095.53;;;8.38;83.82
36234;BME280;43467;50.890;5.982;2024-01-06T04:34:06;99092.66;;;8.43;83.44
36234;BME280;43467;50.890;5.982;2024-01-06T04:36:32;99097.03;;;8.26;82.91
36234;BME280;43467;50.890;5.982;2024-01-06T04:38:57;99093.09;;;8.18;83.04
36234;BME280;43467;50.890;5.982;2024-01-06T04:41:22;99107.56;;;8.11;83.32
36234;BME280;43467;50.890;5.982;2024-01-06T04:43:48;99105.72;;;7.95;84.22
36234;BME280;43467;50.890;5.982;2024-01-06T04:46:13;99103.88;;;7.98;84.73
36234;BME280;43467;50.890;5.982;2024-01-06T04:48:42;99106.53;;;7.80;84.87
36234;BME280;43467;50.890;5.982;2024-01-06T04:51:09;99104.56;;;7.84;85.21
36234;BME280;43467;50.890;5.982;2024-01-06T04:53:38;99115.06;;;7.85;83.34
36234;BME280;43467;50.890;5.982;2024-01-06T04:56:04;99112.25;;;7.71;83.20
36234;BME280;43467;50.890;5.982;2024-01-06T04:58:29;99122.13;;;7.68;82.90
36234;BME280;43467;50.890;5.982;2024-01-06T05:00:54;99114.53;;;7.62;82.37
36234;BME280;43467;50.890;5.982;2024-01-06T05:03:20;99119.47;;;7.68;82.51
36234;BME280;43467;50.890;5.982;2024-01-06T05:05:45;99120.00;;;7.74;82.72
36234;BME280;43467;50.890;5.982;2024-01-06T05:08:11;99115.00;;;7.70;82.97
36234;BME280;43467;50.890;5.982;2024-01-06T05:10:36;99126.06;;;7.76;82.59
36234;BME280;43467;50.890;5.982;2024-01-06T05:13:01;99126.91;;;7.94;82.45
36234;BME280;43467;50.890;5.982;2024-01-06T05:15:27;99137.63;;;7.74;82.72
36234;BME280;43467;50.890;5.982;2024-01-06T05:17:52;99135.63;;;7.62;83.54
36234;BME280;43467;50.890;5.982;2024-01-06T05:20:18;99136.94;;;7.53;83.70
36234;BME280;43467;50.890;5.982;2024-01-06T05:22:43;99141.56;;;7.48;84.07
36234;BME280;43467;50.890;5.982;2024-01-06T05:25:09;99147.00;;;7.45;84.63
36234;BME280;43467;50.890;5.982;2024-01-06T05:27:34;99140.56;;;7.51;84.75
36234;BME280;43467;50.890;5.982;2024-01-06T05:30:00;99145.59;;;7.55;84.80
36234;BME280;43467;50.890;5.982;2024-01-06T05:32:25;99155.28;;;7.37;84.65
36234;BME280;43467;50.890;5.982;2024-01-06T05:34:51;99152.88;;;7.50;84.62
36234;BME280;43467;50.890;5.982;2024-01-06T05:37:17;99152.16;;;7.46;84.24
36234;BME280;43467;50.890;5.982;2024-01-06T05:39:42;99158.13;;;7.50;83.78
36234;BME280;43467;50.890;5.982;2024-01-06T05:42:09;99153.88;;;7.47;84.21
36234;BME280;43467;50.890;5.982;2024-01-06T05:44:36;99162.84;;;7.26;84.54
36234;BME280;43467;50.890;5.982;2024-01-06T05:47:02;99161.69;;;7.32;84.75
36234;BME280;43467;50.890;5.982;2024-01-06T05:49:28;99173.06;;;7.15;85.44
36234;BME280;43467;50.890;5.982;2024-01-06T05:51:53;99174.78;;;7.16;85.77
36234;BME280;43467;50.890;5.982;2024-01-06T05:54:18;99180.25;;;6.93;86.10
36234;BME280;43467;50.890;5.982;2024-01-06T05:56:44;99190.09;;;6.89;86.30
36234;BME280;43467;50.890;5.982;2024-01-06T05:59:09;99179.13;;;6.98;86.30
36234;BME280;43467;50.890;5.982;2024-01-06T06:01:34;99178.16;;;6.82;86.26
36234;BME280;43467;50.890;5.982;2024-01-06T06:04:00;99182.34;;;6.86;86.66
36234;BME280;43467;50.890;5.982;2024-01-06T06:09:00;99196.41;;;6.85;86.72
36234;BME280;43467;50.890;5.982;2024-01-06T06:11:26;99203.38;;;6.86;86.03
36234;BME280;43467;50.890;5.982;2024-01-06T06:13:52;99195.34;;;6.89;85.73
36234;BME280;43467;50.890;5.982;2024-01-06T06:16:17;99208.72;;;6.85;85.92
36234;BME280;43467;50.890;5.982;2024-01-06T06:18:43;99207.44;;;6.75;86.34
36234;BME280;43467;50.890;5.982;2024-01-06T06:21:08;99217.06;;;6.76;86.90
36234;BME280;43467;50.890;5.982;2024-01-06T06:23:34;99222.13;;;6.80;86.49
36234;BME280;43467;50.890;5.982;2024-01-06T06:26:04;99227.59;;;6.76;86.42
36234;BME280;43467;50.890;5.982;2024-01-06T06:28:30;99236.34;;;6.76;85.83
36234;BME280;43467;50.890;5.982;2024-01-06T06:30:55;99233.69;;;6.76;86.55
36234;BME280;43467;50.890;5.982;2024-01-06T06:33:20;99257.28;;;6.78;86.70
36234;BME280;43467;50.890;5.982;2024-01-06T06:35:46;99253.09;;;6.74;87.71
36234;BME280;43467;50.890;5.982;2024-01-06T06:38:11;99252.72;;;6.81;87.77
36234;BME280;43467;50.890;5.982;2024-01-06T06:40:36;99260.50;;;6.84;87.63
36234;BME280;43467;50.890;5.982;2024-01-06T06:43:02;99258.28;;;6.75;87.68
36234;BME280;43467;50.890;5.982;2024-01-06T06:45:28;99263.69;;;6.72;88.89
36234;BME280;43467;50.890;5.982;2024-01-06T06:47:53;99264.75;;;6.68;88.43
36234;BME280;43467;50.890;5.982;2024-01-06T06:50:18;99268.03;;;6.34;88.51
36234;BME280;43467;50.890;5.982;2024-01-06T06:52:46;99278.19;;;6.42;89.23
36234;BME280;43467;50.890;5.982;2024-01-06T06:55:11;99278.91;;;6.45;89.15
36234;BME280;43467;50.890;5.982;2024-01-06T06:57:38;99287.88;;;6.41;89.75
36234;BME280;43467;50.890;5.982;2024-01-06T07:00:04;99282.88;;;6.35;89.15
36234;BME280;43467;50.890;5.982;2024-01-06T07:02:30;99286.09;;;6.42;87.99
36234;BME280;43467;50.890;5.982;2024-01-06T07:04:55;99290.69;;;6.37;88.11
36234;BME280;43467;50.890;5.982;2024-01-06T07:07:20;99295.50;;;6.47;88.07
36234;BME280;43467;50.890;5.982;2024-01-06T07:09:46;99292.00;;;6.47;87.59
36234;BME280;43467;50.890;5.982;2024-01-06T07:12:11;99307.25;;;6.59;87.26
36234;BME280;43467;50.890;5.982;2024-01-06T07:14:36;99310.72;;;6.60;86.60
36234;BME280;43467;50.890;5.982;2024-01-06T07:17:03;99317.09;;;6.54;86.31
36234;BME280;43467;50.890;5.982;2024-01-06T07:19:29;99320.59;;;6.54;86.74
36234;BME280;43467;50.890;5.982;2024-01-06T07:21:55;99325.28;;;6.48;86.40
36234;BME280;43467;50.890;5.982;2024-01-06T07:24:20;99328.19;;;6.61;85.81
36234;BME280;43467;50.890;5.982;2024-01-06T07:26:45;99322.31;;;6.56;85.67
36234;BME280;43467;50.890;5.982;2024-01-06T07:29:11;99333.75;;;6.54;85.33
36234;BME280;43467;50.890;5.982;2024-01-06T07:31:36;99340.63;;;6.57;85.12
36234;BME280;43467;50.890;5.982;2024-01-06T07:34:01;99345.56;;;6.65;84.57
36234;BME280;43467;50.890;5.982;2024-01-06T07:36:27;99346.56;;;6.62;84.81
36234;BME280;43467;50.890;5.982;2024-01-06T07:38:52;99351.66;;;6.65;85.05
36234;BME280;43467;50.890;5.982;2024-01-06T07:41:18;99350.91;;;6.63;85.06
36234;BME280;43467;50.890;5.982;2024-01-06T07:43:43;99357.78;;;6.66;84.61
36234;BME280;43467;50.890;5.982;2024-01-06T07:46:08;99362.34;;;6.62;84.05
36234;BME280;43467;50.890;5.982;2024-01-06T07:48:35;99372.84;;;6.62;84.12
36234;BME280;43467;50.890;5.982;2024-01-06T07:51:01;99380.22;;;6.54;83.34
36234;BME280;43467;50.890;5.982;2024-01-06T07:53:26;99376.94;;;6.49;83.92
36234;BME280;43467;50.890;5.982;2024-01-06T07:55:53;99379.94;;;6.40;84.08
36234;BME280;43467;50.890;5.982;2024-01-06T07:58:18;99384.94;;;6.46;83.91
36234;BME280;43467;50.890;5.982;2024-01-06T08:00:43;99389.16;;;6.50;82.40
36234;BME280;43467;50.890;5.982;2024-01-06T08:03:10;99391.31;;;6.61;83.26
36234;BME280;43467;50.890;5.982;2024-01-06T08:05:36;99398.28;;;6.62;83.04
36234;BME280;43467;50.890;5.982;2024-01-06T08:08:03;99398.69;;;6.73;82.61
36234;BME280;43467;50.890;5.982;2024-01-06T08:10:29;99402.44;;;6.67;82.70
36234;BME280;43467;50.890;5.982;2024-01-06T08:12:54;99397.78;;;6.53;82.42
36234;BME280;43467;50.890;5.982;2024-01-06T08:15:20;99401.72;;;6.64;82.42
36234;BME280;43467;50.890;5.982;2024-01-06T08:17:45;99402.16;;;6.73;81.75
36234;BME280;43467;50.890;5.982;2024-01-06T08:20:12;99405.41;;;6.80;81.65
36234;BME280;43467;50.890;5.982;2024-01-06T08:22:38;99409.97;;;6.76;80.85
36234;BME280;43467;50.890;5.982;2024-01-06T08:25:04;99410.72;;;6.78;79.85
36234;BME280;43467;50.890;5.982;2024-01-06T08:27:31;99419.47;;;6.79;79.56
36234;BME280;43467;50.890;5.982;2024-01-06T08:29:56;99423.03;;;6.78;79.41
36234;BME280;43467;50.890;5.982;2024-01-06T08:32:22;99424.88;;;6.76;79.85
36234;BME280;43467;50.890;5.982;2024-01-06T08:34:47;99428.66;;;6.69;79.05
36234;BME280;43467;50.890;5.982;2024-01-06T08:37:13;99433.63;;;6.56;80.02
36234;BME280;43467;50.890;5.982;2024-01-06T08:39:39;99441.56;;;6.54;80.84
36234;BME280;43467;50.890;5.982;2024-01-06T08:42:04;99445.09;;;6.53;80.05
36234;BME280;43467;50.890;5.982;2024-01-06T08:44:30;99451.00;;;6.38;81.11
36234;BME280;43467;50.890;5.982;2024-01-06T08:46:56;99453.31;;;6.46;80.80
36234;BME280;43467;50.890;5.982;2024-01-06T08:49:21;99465.44;;;6.28;81.38
36234;BME280;43467;50.890;5.982;2024-01-06T08:51:46;99475.31;;;6.23;80.72
36234;BME280;43467;50.890;5.982;2024-01-06T08:54:12;99466.06;;;6.35;80.38
36234;BME280;43467;50.890;5.982;2024-01-06T08:56:37;99474.84;;;6.34;80.65
36234;BME280;43467;50.890;5.982;2024-01-06T08:59:03;99470.81;;;6.25;81.10
36234;BME280;43467;50.890;5.982;2024-01-06T09:01:28;99484.97;;;6.23;81.08
36234;BME280;43467;50.890;5.982;2024-01-06T09:03:54;99486.78;;;6.21;80.76
36234;BME280;43467;50.890;5.982;2024-01-06T09:06:19;99488.66;;;6.17;81.88
36234;BME280;43467;50.890;5.982;2024-01-06T09:08:44;99501.69;;;6.20;82.02
36234;BME280;43467;50.890;5.982;2024-01-06T09:11:10;99507.88;;;6.19;82.79
36234;BME280;43467;50.890;5.982;2024-01-06T09:13:35;99501.13;;;6.12;82.99
36234;BME280;43467;50.890;5.982;2024-01-06T09:16:00;99503.50;;;5.96;83.90
36234;BME280;43467;50.890;5.982;2024-01-06T09:18:27;99515.44;;;6.05;83.46
36234;BME280;43467;50.890;5.982;2024-01-06T09:20:52;99515.47;;;6.03;83.44
36234;BME280;43467;50.890;5.982;2024-01-06T09:23:19;99514.75;;;6.00;83.49
36234;BME280;43467;50.890;5.982;2024-01-06T09:25:45;99520.94;;;5.99;83.16
36234;BME280;43467;50.890;5.982;2024-01-06T09:28:10;99529.66;;;5.99;83.35
36234;BME280;43467;50.890;5.982;2024-01-06T09:30:36;99530.94;;;5.89;83.45
36234;BME280;43467;50.890;5.982;2024-01-06T09:33:02;99526.81;;;6.05;83.50
36234;BME280;43467;50.890;5.982;2024-01-06T09:35:28;99521.22;;;5.91;83.37
36234;BME280;43467;50.890;5.982;2024-01-06T09:37:55;99530.75;;;5.94;83.82
36234;BME280;43467;50.890;5.982;2024-01-06T09:40:23;99539.94;;;5.82;83.10
36234;BME280;43467;50.890;5.982;2024-01-06T09:42:52;99534.72;;;5.81;83.86
36234;BME280;43467;50.890;5.982;2024-01-06T09:45:19;99540.28;;;5.73;84.22
36234;BME280;43467;50.890;5.982;2024-01-06T09:47:49;99543.91;;;5.94;84.25
36234;BME280;43467;50.890;5.982;2024-01-06T09:50:18;99550.63;;;6.01;83.68
36234;BME280;43467;50.890;5.982;2024-01-06T09:52:48;99552.66;;;6.16;82.94
36234;BME280;43467;50.890;5.982;2024-01-06T09:55:25;99555.78;;;6.26;81.89
36234;BME280;43467;50.890;5.982;2024-01-06T09:57:53;99550.06;;;6.38;82.01
36234;BME280;43467;50.890;5.982;2024-01-06T10:00:20;99565.97;;;6.35;81.68
36234;BME280;43467;50.890;5.982;2024-01-06T10:02:49;99562.53;;;6.33;81.45
36234;BME280;43467;50.890;5.982;2024-01-06T10:05:16;99565.88;;;6.36;80.85
36234;BME280;43467;50.890;5.982;2024-01-06T10:07:43;99571.03;;;6.39;80.91
36234;BME280;43467;50.890;5.982;2024-01-06T10:10:09;99572.81;;;6.39;79.79
36234;BME280;43467;50.890;5.982;2024-01-06T10:12:37;99574.03;;;6.30;80.24
36234;BME280;43467;50.890;5.982;2024-01-06T10:15:03;99575.66;;;6.33;79.71
36234;BME280;43467;50.890;5.982;2024-01-06T10:17:29;99568.16;;;6.45;79.15
36234;BME280;43467;50.890;5.982;2024-01-06T10:19:54;99573.28;;;6.48;78.67
36234;BME280;43467;50.890;5.982;2024-01-06T10:22:19;99583.28;;;6.62;79.61
36234;BME280;43467;50.890;5.982;2024-01-06T10:24:46;99577.63;;;6.49;78.40
36234;BME280;43467;50.890;5.982;2024-01-06T10:27:11;99588.09;;;6.51;78.46
36234;BME280;43467;50.890;5.982;2024-01-06T10:29:37;99574.88;;;6.52;78.58
36234;BME280;43467;50.890;5.982;2024-01-06T10:32:02;99579.34;;;6.50;78.40
36234;BME280;43467;50.890;5.982;2024-01-06T10:34:28;99580.13;;;6.52;78.66
36234;BME280;43467;50.890;5.982;2024-01-06T10:36:54;99584.84;;;6.44;79.32
36234;BME280;43467;50.890;5.982;2024-01-06T10:39:20;99585.78;;;6.43;79.84
36234;BME280;43467;50.890;5.982;2024-01-06T10:41:48;99585.69;;;6.45;79.20
36234;BME280;43467;50.890;5.982;2024-01-06T10:44:14;99582.84;;;6.51;79.30
36234;BME280;43467;50.890;5.982;2024-01-06T10:46:41;99590.91;;;6.46;79.62
36234;BME280;43467;50.890;5.982;2024-01-06T10:49:08;99587.38;;;6.47;80.12
36234;BME280;43467;50.890;5.982;2024-01-06T10:51:39;99582.34;;;6.41;80.13
36234;BME280;43467;50.890;5.982;2024-01-06T10:54:05;99585.81;;;5.97;82.17
36234;BME280;43467;50.890;5.982;2024-01-06T10:56:37;99586.56;;;6.00;82.03
36234;BME280;43467;50.890;5.982;2024-01-06T10:59:04;99578.09;;;6.16;82.13
36234;BME280;43467;50.890;5.982;2024-01-06T11:01:30;99580.53;;;6.20;81.83
36234;BME280;43467;50.890;5.982;2024-01-06T11:03:57;99586.78;;;6.18;82.16
36234;BME280;43467;50.890;5.982;2024-01-06T11:06:23;99597.28;;;6.18;82.17
36234;BME280;43467;50.890;5.982;2024-01-06T11:11:24;99591.00;;;6.22;82.48
36234;BME280;43467;50.890;5.982;2024-01-06T11:13:50;99598.44;;;6.11;82.49
36234;BME280;43467;50.890;5.982;2024-01-06T11:16:34;99583.97;;;6.22;82.94
36234;BME280;43467;50.890;5.982;2024-01-06T11:19:00;99590.28;;;6.18;82.78
36234;BME280;43467;50.890;5.982;2024-01-06T11:21:26;99588.97;;;6.28;82.65
36234;BME280;43467;50.890;5.982;2024-01-06T11:24:18;99591.09;;;6.42;81.61
36234;BME280;43467;50.890;5.982;2024-01-06T11:26:51;99592.81;;;6.43;81.60
36234;BME280;43467;50.890;5.982;2024-01-06T11:29:19;99588.16;;;6.49;81.19
36234;BME280;43467;50.890;5.982;2024-01-06T11:32:46;99587.25;;;6.50;81.36
36234;BME280;43467;50.890;5.982;2024-01-06T11:34:54;99580.59;;;6.64;80.63
36234;BME280;43467;50.890;5.982;2024-01-06T11:40:22;99578.38;;;6.53;81.03
36234;BME280;43467;50.890;5.982;2024-01-06T11:45:25;99580.91;;;6.56;80.38
36234;BME280;43467;50.890;5.982;2024-01-06T11:47:55;99580.78;;;6.59;80.98
36234;BME280;43467;50.890;5.982;2024-01-06T11:50:22;99576.72;;;6.50;80.97
36234;BME280;43467;50.890;5.982;2024-01-06T11:52:49;99575.88;;;6.50;81.41
36234;BME280;43467;50.890;5.982;2024-01-06T11:55:17;99588.22;;;6.48;81.63
36234;BME280;43467;50.890;5.982;2024-01-06T11:57:44;99596.13;;;6.25;83.17
36234;BME280;43467;50.890;5.982;2024-01-06T12:00:09;99591.13;;;6.19;82.73
36234;BME280;43467;50.890;5.982;2024-01-06T12:02:35;99594.38;;;6.25;83.01
36234;BME280;43467;50.890;5.982;2024-01-06T12:05:00;99592.81;;;6.20;84.19
36234;BME280;43467;50.890;5.982;2024-01-06T12:07:26;99597.59;;;6.32;84.39
36234;BME280;43467;50.890;5.982;2024-01-06T12:10:01;99589.19;;;6.45;83.84
36234;BME280;43467;50.890;5.982;2024-01-06T12:12:27;99598.13;;;6.41;82.91
36234;BME280;43467;50.890;5.982;2024-01-06T12:14:52;99591.03;;;6.43;83.05
36234;BME280;43467;50.890;5.982;2024-01-06T12:17:20;99593.50;;;6.48;82.96
36234;BME280;43467;50.890;5.982;2024-01-06T12:19:46;99593.50;;;6.48;83.37
36234;BME280;43467;50.890;5.982;2024-01-06T12:22:12;99599.91;;;6.18;84.04
36234;BME280;43467;50.890;5.982;2024-01-06T12:24:39;99592.91;;;6.40;84.74
36234;BME280;43467;50.890;5.982;2024-01-06T12:27:09;99589.63;;;6.35;83.83
36234;BME280;43467;50.890;5.982;2024-01-06T12:29:38;99585.41;;;6.31;83.86
36234;BME280;43467;50.890;5.982;2024-01-06T12:32:05;99588.94;;;6.30;84.11
36234;BME280;43467;50.890;5.982;2024-01-06T12:34:31;99594.19;;;6.30;84.31
36234;BME280;43467;50.890;5.982;2024-01-06T12:36:57;99603.69;;;6.34;84.11
36234;BME280;43467;50.890;5.982;2024-01-06T12:39:27;99601.69;;;6.17;84.12
36234;BME280;43467;50.890;5.982;2024-01-06T12:41:54;99579.59;;;6.23;84.15
36234;BME280;43467;50.890;5.982;2024-01-06T12:44:19;99597.56;;;6.33;83.72
36234;BME280;43467;50.890;5.982;2024-01-06T12:46:45;99599.16;;;6.37;83.81
36234;BME280;43467;50.890;5.982;2024-01-06T12:49:11;99599.50;;;6.51;83.43
36234;BME280;43467;50.890;5.982;2024-01-06T12:51:36;99591.59;;;6.51;81.95
36234;BME280;43467;50.890;5.982;2024-01-06T12:54:02;99606.56;;;6.49;81.61
36234;BME280;43467;50.890;5.982;2024-01-06T12:56:28;99605.59;;;6.52;82.37
36234;BME280;43467;50.890;5.982;2024-01-06T12:58:54;99609.38;;;6.45;82.37
36234;BME280;43467;50.890;5.982;2024-01-06T13:01:19;99599.56;;;6.27;82.63
36234;BME280;43467;50.890;5.982;2024-01-06T13:03:45;99609.97;;;6.30;83.44
36234;BME280;43467;50.890;5.982;2024-01-06T13:06:11;99594.06;;;6.33;83.75
36234;BME280;43467;50.890;5.982;2024-01-06T13:08:36;99611.44;;;6.37;83.19
36234;BME280;43467;50.890;5.982;2024-01-06T13:11:02;99613.13;;;6.39;83.09
36234;BME280;43467;50.890;5.982;2024-01-06T13:13:28;99610.09;;;6.27;83.21
36234;BME280;43467;50.890;5.982;2024-01-06T13:16:00;99613.28;;;6.35;83.55